createdAt,value
2016-02-04T00:00:46.888Z,3.59
2016-02-04T00:01:46.891Z,3.62
2016-02-04T00:02:46.846Z,3.59
2016-02-04T00:03:46.849Z,3.59
2016-02-04T00:05:00.274Z,3.68
2016-02-04T00:05:46.854Z,3.69
2016-02-04T00:06:53.654Z,3.73
2016-02-04T00:07:46.891Z,3.76
2016-02-04T00:08:46.878Z,3.7
2016-02-04T00:09:46.865Z,3.68
2016-02-04T00:10:53.681Z,3.81
2016-02-04T00:11:46.808Z,3.7
2016-02-04T00:12:46.846Z,3.83
2016-02-04T00:13:46.818Z,3.88
2016-02-04T00:14:46.835Z,3.7
2016-02-04T00:15:46.807Z,3.87
2016-02-04T00:16:47.184Z,3.8
2016-02-04T00:17:46.907Z,3.83
2016-02-04T00:18:54.081Z,3.8
2016-02-04T00:19:46.928Z,3.81
2016-02-04T00:20:46.883Z,3.87
2016-02-04T00:21:46.902Z,3.76
2016-02-04T00:22:53.920Z,3.8
2016-02-04T00:23:46.798Z,3.81
2016-02-04T00:24:53.926Z,3.76
2016-02-04T00:25:54.006Z,3.8
2016-02-04T00:26:46.775Z,3.77
2016-02-04T00:27:46.778Z,3.77
2016-02-04T00:28:46.781Z,3.77
2016-02-04T00:29:51.439Z,3.76
2016-02-04T00:30:46.786Z,3.77
2016-02-04T00:31:53.929Z,3.8
2016-02-04T00:33:01.214Z,3.83
2016-02-04T00:33:46.779Z,3.78
2016-02-04T00:34:46.766Z,3.77
2016-02-04T00:35:46.768Z,3.81
2016-02-04T00:36:46.756Z,3.81
2016-02-04T00:37:46.759Z,3.84
2016-02-04T00:38:46.761Z,3.76
2016-02-04T00:39:46.733Z,3.83
2016-02-04T00:40:46.736Z,3.77
2016-02-04T00:41:54.056Z,3.78
2016-02-04T00:42:46.762Z,3.76
2016-02-04T00:43:46.749Z,3.76
2016-02-04T00:44:46.719Z,3.87
2016-02-04T00:45:46.721Z,3.78
2016-02-04T00:46:46.787Z,3.84
2016-02-04T00:47:46.743Z,3.81
2016-02-04T00:48:46.718Z,3.77
2016-02-04T00:49:46.736Z,3.78
2016-02-04T00:50:46.723Z,3.78
2016-02-04T00:51:46.711Z,3.8
2016-02-04T00:52:46.699Z,3.84
2016-02-04T00:53:46.686Z,3.83
2016-02-04T00:54:46.689Z,3.84
2016-02-04T00:55:46.723Z,3.83
2016-02-04T00:56:46.695Z,3.8
2016-02-04T00:57:46.994Z,3.95
2016-02-04T00:58:46.669Z,3.87
2016-02-04T00:59:46.687Z,3.91
2016-02-04T01:00:46.674Z,3.84
2016-02-04T01:01:46.709Z,3.87
2016-02-04T01:02:53.554Z,3.87
2016-02-04T01:03:46.652Z,3.87
2016-02-04T01:04:46.671Z,3.91
2016-02-04T01:05:46.658Z,3.83
2016-02-04T01:06:51.286Z,3.88
2016-02-04T01:07:46.632Z,3.87
2016-02-04T01:08:53.650Z,3.81
2016-02-04T01:09:46.639Z,3.91
2016-02-04T01:10:46.641Z,3.91
2016-02-04T01:11:51.207Z,3.83
2016-02-04T01:12:46.632Z,3.83
2016-02-04T01:13:46.650Z,3.83
2016-02-04T01:14:46.646Z,3.91
2016-02-04T01:15:46.605Z,3.84
2016-02-04T01:16:46.428Z,3.81
2016-02-04T01:17:46.574Z,3.84
2016-02-04T01:18:53.738Z,3.81
2016-02-04T01:19:46.563Z,3.95
2016-02-04T01:20:46.562Z,3.94
2016-02-04T01:21:46.576Z,3.98
2016-02-04T01:22:46.543Z,4.01
2016-02-04T01:23:46.529Z,3.92
2016-02-04T01:24:46.514Z,4.02
2016-02-04T01:25:46.515Z,3.99
2016-02-04T01:26:46.516Z,4.02
2016-02-04T01:27:46.502Z,3.99
2016-02-04T01:28:51.222Z,4.02
2016-02-04T01:29:46.536Z,4.1
2016-02-04T01:30:46.492Z,4.01
2016-02-04T01:32:00.322Z,4.08
2016-02-04T01:32:46.512Z,4.12
2016-02-04T01:33:46.483Z,4.16
2016-02-04T01:34:46.485Z,4.19
2016-02-04T01:35:46.519Z,4.1
2016-02-04T01:36:46.476Z,4.16
2016-02-04T01:37:46.464Z,4.19
2016-02-04T01:38:46.466Z,4.12
2016-02-04T01:39:50.921Z,4.22
2016-02-04T01:40:50.799Z,4.24
2016-02-04T01:41:46.474Z,4.26
2016-02-04T01:42:46.477Z,4.24
2016-02-04T01:43:46.463Z,4.26
2016-02-04T01:44:46.450Z,4.22
2016-02-04T01:45:50.809Z,4.31
2016-02-04T01:46:50.811Z,4.32
2016-02-04T01:47:46.455Z,4.37
2016-02-04T01:48:46.426Z,4.37
2016-02-04T01:49:46.445Z,4.37
2016-02-04T01:50:46.432Z,4.38
2016-02-04T01:51:46.435Z,4.31
2016-02-04T01:52:46.437Z,4.32
2016-02-04T01:53:46.425Z,4.32
2016-02-04T01:54:46.427Z,4.38
2016-02-04T01:55:46.446Z,4.34
2016-02-04T01:56:46.433Z,4.34
2016-02-04T01:57:46.451Z,4.34
2016-02-04T01:58:46.406Z,4.34
2016-02-04T01:59:46.410Z,4.34
2016-02-04T02:00:46.412Z,4.37
2016-02-04T02:01:46.431Z,4.32
2016-02-04T02:02:46.402Z,4.34
2016-02-04T02:03:46.389Z,4.32
2016-02-04T02:04:46.408Z,4.35
2016-02-04T02:05:46.395Z,4.34
2016-02-04T02:06:46.413Z,4.34
2016-02-04T02:07:53.557Z,4.35
2016-02-04T02:08:46.388Z,4.34
2016-02-04T02:09:46.391Z,4.34
2016-02-04T02:10:46.394Z,4.34
2016-02-04T02:11:46.396Z,4.34
2016-02-04T02:12:46.398Z,4.4
2016-02-04T02:13:46.370Z,4.4
2016-02-04T02:14:46.373Z,4.4
2016-02-04T02:15:46.391Z,4.34
2016-02-04T02:16:46.368Z,4.4
2016-02-04T02:17:46.373Z,4.41
2016-02-04T02:18:46.360Z,4.38
2016-02-04T02:19:46.363Z,4.4
2016-02-04T02:20:46.380Z,4.4
2016-02-04T02:21:46.337Z,4.38
2016-02-04T02:22:46.340Z,4.42
2016-02-04T02:23:46.342Z,4.4
2016-02-04T02:24:46.360Z,4.4
2016-02-04T02:25:46.363Z,4.38
2016-02-04T02:26:46.334Z,4.41
2016-02-04T02:27:46.337Z,4.48
2016-02-04T02:28:52.746Z,4.41
2016-02-04T02:29:46.343Z,4.45
2016-02-04T02:30:46.330Z,4.48
2016-02-04T02:31:46.349Z,4.42
2016-02-04T02:32:46.318Z,4.5
2016-02-04T02:33:46.304Z,4.52
2016-02-04T02:34:46.307Z,4.42
2016-02-04T02:35:50.469Z,4.52
2016-02-04T02:36:46.313Z,4.45
2016-02-04T02:37:46.315Z,4.52
2016-02-04T02:38:52.709Z,4.56
2016-02-04T02:39:46.305Z,4.49
2016-02-04T02:40:50.434Z,4.5
2016-02-04T02:41:52.766Z,4.5
2016-02-04T02:42:46.299Z,4.53
2016-02-04T02:43:46.302Z,4.52
2016-02-04T02:44:46.351Z,4.53
2016-02-04T02:45:46.291Z,4.55
2016-02-04T02:46:46.278Z,4.56
2016-02-04T02:47:46.299Z,4.6
2016-02-04T02:48:46.301Z,4.55
2016-02-04T02:49:46.289Z,4.53
2016-02-04T02:50:52.884Z,4.6
2016-02-04T02:51:46.294Z,4.55
2016-02-04T02:52:46.270Z,4.55
2016-02-04T02:53:46.271Z,4.55
2016-02-04T02:54:46.291Z,4.55
2016-02-04T02:55:46.277Z,4.48
2016-02-04T02:56:46.280Z,4.58
2016-02-04T02:57:46.268Z,4.49
2016-02-04T02:58:46.255Z,4.55
2016-02-04T02:59:46.259Z,4.6
2016-02-04T03:00:46.277Z,4.6
2016-02-04T03:01:46.264Z,4.58
2016-02-04T03:02:46.251Z,4.53
2016-02-04T03:03:45.925Z,4.53
2016-02-04T03:04:46.241Z,4.55
2016-02-04T03:05:53.150Z,4.6
2016-02-04T03:06:46.247Z,4.67
2016-02-04T03:07:46.264Z,4.62
2016-02-04T03:08:46.251Z,4.62
2016-02-04T03:09:46.238Z,4.66
2016-02-04T03:10:46.258Z,4.62
2016-02-04T03:11:46.228Z,4.67
2016-02-04T03:12:50.794Z,4.55
2016-02-04T03:13:46.218Z,4.55
2016-02-04T03:14:46.221Z,4.48
2016-02-04T03:15:46.224Z,4.49
2016-02-04T03:16:46.211Z,4.5
2016-02-04T03:17:46.214Z,4.52
2016-02-04T03:18:46.201Z,4.56
2016-02-04T03:19:53.021Z,4.62
2016-02-04T03:20:46.211Z,4.49
2016-02-04T03:21:52.996Z,4.55
2016-02-04T03:22:57.436Z,4.55
2016-02-04T03:23:46.190Z,4.58
2016-02-04T03:24:46.193Z,4.58
2016-02-04T03:25:46.196Z,4.59
2016-02-04T03:26:52.605Z,4.55
2016-02-04T03:27:46.185Z,4.52
2016-02-04T03:28:46.188Z,4.49
2016-02-04T03:29:46.175Z,4.5
2016-02-04T03:30:46.193Z,4.49
2016-02-04T03:31:46.213Z,4.44
2016-02-04T03:32:46.200Z,4.53
2016-02-04T03:33:46.172Z,4.44
2016-02-04T03:34:46.190Z,4.44
2016-02-04T03:35:46.161Z,4.4
2016-02-04T03:36:46.168Z,4.34
2016-02-04T03:37:46.171Z,4.44
2016-02-04T03:38:50.409Z,4.49
2016-02-04T03:39:46.146Z,4.44
2016-02-04T03:40:46.165Z,4.35
2016-02-04T03:41:57.167Z,4.38
2016-02-04T03:42:46.140Z,4.35
2016-02-04T03:43:46.142Z,4.37
2016-02-04T03:44:46.129Z,4.38
2016-02-04T03:45:46.163Z,4.38
2016-02-04T03:46:46.150Z,4.4
2016-02-04T03:47:46.129Z,4.4
2016-02-04T03:48:46.116Z,4.37
2016-02-04T03:49:46.119Z,4.32
2016-02-04T03:50:46.122Z,4.3
2016-02-04T03:51:52.985Z,4.28
2016-02-04T03:52:46.113Z,4.31
2016-02-04T03:53:46.115Z,4.32
2016-02-04T03:54:46.118Z,4.38
2016-02-04T03:55:46.123Z,4.31
2016-02-04T03:56:46.125Z,4.3
2016-02-04T03:57:46.112Z,4.22
2016-02-04T03:58:50.709Z,4.23
2016-02-04T03:59:46.102Z,4.3
2016-02-04T04:01:00.308Z,4.28
2016-02-04T04:01:53.123Z,4.26
2016-02-04T04:02:46.111Z,4.3
2016-02-04T04:03:46.114Z,4.23
2016-02-04T04:04:50.711Z,4.23
2016-02-04T04:05:46.086Z,4.28
2016-02-04T04:06:46.089Z,4.23
2016-02-04T04:07:46.123Z,4.23
2016-02-04T04:08:46.068Z,4.3
2016-02-04T04:09:46.070Z,4.3
2016-02-04T04:10:46.057Z,4.23
2016-02-04T04:11:50.796Z,4.22
2016-02-04T04:12:50.799Z,4.17
2016-02-04T04:13:46.066Z,4.26
2016-02-04T04:14:46.069Z,4.23
2016-02-04T04:15:46.056Z,4.24
2016-02-04T04:16:46.273Z,4.13
2016-02-04T04:17:46.214Z,4.22
2016-02-04T04:18:46.279Z,4.12
2016-02-04T04:19:50.750Z,4.16
2016-02-04T04:20:53.159Z,4.13
2016-02-04T04:21:46.225Z,4.23
2016-02-04T04:22:46.247Z,4.2
2016-02-04T04:23:46.170Z,4.13
2016-02-04T04:24:46.252Z,4.1
2016-02-04T04:25:46.223Z,4.08
2016-02-04T04:26:46.132Z,4.1
2016-02-04T04:27:53.479Z,4.05
2016-02-04T04:28:46.029Z,4.08
2016-02-04T04:29:53.437Z,4.08
2016-02-04T04:30:46.050Z,4.06
2016-02-04T04:31:53.459Z,4.08
2016-02-04T04:32:46.009Z,4.13
2016-02-04T04:33:46.027Z,4.14
2016-02-04T04:34:46.015Z,4.05
2016-02-04T04:35:46.019Z,4.1
2016-02-04T04:36:46.022Z,4.16
2016-02-04T04:37:46.008Z,4.08
2016-02-04T04:38:45.996Z,4.14
2016-02-04T04:39:45.999Z,4.17
2016-02-04T04:40:46.016Z,4.1
2016-02-04T04:41:46.005Z,4.19
2016-02-04T04:42:50.616Z,4.14
2016-02-04T04:43:45.994Z,4.16
2016-02-04T04:44:45.997Z,4.24
2016-02-04T04:45:46.000Z,4.12
2016-02-04T04:46:45.989Z,4.06
2016-02-04T04:47:45.978Z,4.06
2016-02-04T04:48:45.995Z,4.08
2016-02-04T04:49:45.968Z,4.04
2016-02-04T04:50:50.299Z,4.12
2016-02-04T04:51:45.989Z,4.16
2016-02-04T04:52:45.960Z,4.22
2016-02-04T04:53:45.963Z,4.23
2016-02-04T04:54:45.950Z,4.13
2016-02-04T04:55:45.968Z,4.16
2016-02-04T04:56:45.986Z,4.2
2016-02-04T04:57:52.848Z,4.13
2016-02-04T04:58:45.945Z,4.2
2016-02-04T04:59:45.948Z,4.2
2016-02-04T05:00:45.951Z,4.16
2016-02-04T05:01:45.954Z,4.19
2016-02-04T05:02:45.956Z,4.19
2016-02-04T05:03:53.006Z,4.14
2016-02-04T05:04:45.931Z,4.22
2016-02-04T05:05:45.949Z,4.31
2016-02-04T05:06:50.329Z,4.26
2016-02-04T05:07:45.957Z,4.24
2016-02-04T05:08:45.929Z,4.23
2016-02-04T05:09:45.931Z,4.28
2016-02-04T05:10:45.919Z,4.28
2016-02-04T05:11:50.140Z,4.26
2016-02-04T05:12:45.955Z,4.24
2016-02-04T05:13:45.927Z,4.22
2016-02-04T05:14:52.570Z,4.14
2016-02-04T05:15:52.589Z,4.17
2016-02-04T05:16:45.921Z,4.23
2016-02-04T05:17:45.939Z,4.12
2016-02-04T05:18:59.352Z,4.17
2016-02-04T05:19:45.916Z,4.13
2016-02-04T05:20:45.919Z,4.16
2016-02-04T05:21:45.747Z,4.14
2016-02-04T05:22:45.907Z,4.14
2016-02-04T05:23:45.894Z,4.17
2016-02-04T05:24:45.882Z,4.14
2016-02-04T05:25:45.885Z,4.19
2016-02-04T05:26:45.903Z,4.19
2016-02-04T05:27:45.890Z,4.14
2016-02-04T05:28:45.878Z,4.22
2016-02-04T05:29:45.864Z,4.2
2016-02-04T05:30:45.883Z,4.19
2016-02-04T05:31:56.951Z,4.13
2016-02-04T05:32:49.467Z,4.13
2016-02-04T05:33:45.892Z,4.12
2016-02-04T05:34:45.863Z,4.1
2016-02-04T05:35:45.866Z,4.08
2016-02-04T05:36:45.868Z,4.1
2016-02-04T05:37:45.871Z,4.04
2016-02-04T05:38:45.847Z,4.06
2016-02-04T05:39:45.850Z,4.01
2016-02-04T05:40:45.837Z,4.01
2016-02-04T05:41:51.605Z,4.04
2016-02-04T05:42:45.858Z,4.06
2016-02-04T05:43:45.845Z,4.04
2016-02-04T05:44:45.832Z,3.94
2016-02-04T05:45:45.835Z,3.95
2016-02-04T05:46:45.853Z,3.84
2016-02-04T05:47:45.824Z,3.84
2016-02-04T05:48:51.687Z,3.83
2016-02-04T05:49:45.815Z,3.86
2016-02-04T05:50:49.536Z,3.84
2016-02-04T05:51:49.620Z,3.81
2016-02-04T05:52:51.764Z,3.81
2016-02-04T05:53:45.813Z,3.81
2016-02-04T05:54:49.535Z,3.77
2016-02-04T05:55:45.819Z,3.73
2016-02-04T05:56:45.837Z,3.74
2016-02-04T05:57:45.809Z,3.7
2016-02-04T05:58:45.797Z,3.63
2016-02-04T05:59:45.800Z,3.59
2016-02-04T06:00:45.802Z,3.6
2016-02-04T06:01:45.805Z,3.5
2016-02-04T06:02:45.776Z,3.5
2016-02-04T06:03:45.782Z,3.5
2016-02-04T06:04:45.784Z,3.58
2016-02-04T06:05:45.772Z,3.48
2016-02-04T06:06:45.774Z,3.47
2016-02-04T06:07:45.777Z,3.45
2016-02-04T06:08:45.780Z,3.45
2016-02-04T06:09:45.767Z,3.56
2016-02-04T06:10:45.756Z,3.42
2016-02-04T06:11:45.759Z,3.45
2016-02-04T06:12:49.808Z,3.5
2016-02-04T06:13:56.156Z,3.48
2016-02-04T06:14:45.752Z,3.53
2016-02-04T06:15:45.741Z,3.58
2016-02-04T06:16:45.743Z,3.53
2016-02-04T06:17:45.747Z,3.44
2016-02-04T06:18:45.750Z,3.42
2016-02-04T06:19:45.737Z,3.45
2016-02-04T06:20:45.756Z,3.5
2016-02-04T06:21:45.742Z,3.45
2016-02-04T06:22:45.762Z,3.44
2016-02-04T06:23:45.734Z,3.41
2016-02-04T06:24:45.721Z,3.4
2016-02-04T06:25:45.740Z,3.31
2016-02-04T06:26:45.710Z,3.42
2016-02-04T06:27:45.713Z,3.32
2016-02-04T06:28:52.513Z,3.34
2016-02-04T06:29:45.719Z,3.29
2016-02-04T06:30:45.707Z,3.34
2016-02-04T06:31:45.710Z,3.32
2016-02-04T06:32:45.712Z,3.32
2016-02-04T06:33:45.715Z,3.29
2016-02-04T06:34:50.015Z,3.28
2016-02-04T06:35:45.690Z,3.34
2016-02-04T06:36:57.115Z,3.32
2016-02-04T06:37:45.698Z,3.29
2016-02-04T06:38:45.686Z,3.18
2016-02-04T06:39:45.672Z,3.25
2016-02-04T06:40:45.675Z,3.25
2016-02-04T06:41:45.694Z,3.23
2016-02-04T06:42:45.681Z,3.23
2016-02-04T06:43:51.747Z,3.23
2016-02-04T06:44:45.656Z,3.22
2016-02-04T06:45:51.674Z,3.41
2016-02-04T06:46:45.645Z,3.37
2016-02-04T06:47:45.664Z,3.44
2016-02-04T06:48:45.633Z,3.41
2016-02-04T06:49:55.653Z,3.4
2016-02-04T06:50:45.653Z,3.4
2016-02-04T06:51:51.784Z,3.48
2016-02-04T06:52:45.634Z,3.47
2016-02-04T06:53:45.620Z,3.5
2016-02-04T06:54:45.607Z,3.47
2016-02-04T06:55:45.611Z,3.45
2016-02-04T06:56:45.660Z,3.51
2016-02-04T06:57:45.599Z,3.55
2016-02-04T06:58:45.602Z,3.56
2016-02-04T06:59:45.605Z,3.53
2016-02-04T07:00:45.608Z,3.56
2016-02-04T07:01:45.611Z,3.58
2016-02-04T07:02:45.618Z,3.58
2016-02-04T07:03:45.589Z,3.58
2016-02-04T07:04:45.576Z,3.59
2016-02-04T07:05:45.579Z,3.69
2016-02-04T07:06:45.612Z,3.62
2016-02-04T07:07:52.068Z,3.68
2016-02-04T07:08:52.056Z,3.74
2016-02-04T07:09:45.573Z,3.8
2016-02-04T07:10:45.545Z,3.73
2016-02-04T07:11:45.548Z,3.8
2016-02-04T07:12:52.239Z,3.78
2016-02-04T07:13:45.553Z,3.8
2016-02-04T07:14:45.544Z,3.78
2016-02-04T07:15:45.547Z,3.81
2016-02-04T07:16:45.565Z,3.8
2016-02-04T07:17:45.552Z,3.84
2016-02-04T07:18:45.540Z,3.87
2016-02-04T07:19:45.543Z,3.83
2016-02-04T07:20:45.530Z,3.96
2016-02-04T07:21:45.526Z,3.84
2016-02-04T07:22:45.513Z,3.84
2016-02-04T07:23:45.515Z,3.87
2016-02-04T07:24:45.519Z,3.81
2016-02-04T07:25:45.521Z,3.91
2016-02-04T07:26:45.508Z,4.01
2016-02-04T07:27:45.514Z,3.98
2016-02-04T07:28:49.672Z,4.01
2016-02-04T07:29:45.503Z,4.02
2016-02-04T07:30:45.505Z,3.98
2016-02-04T07:31:45.494Z,3.96
2016-02-04T07:32:45.514Z,4.04
2016-02-04T07:33:52.127Z,4.02
2016-02-04T07:34:45.474Z,3.98
2016-02-04T07:35:45.493Z,3.92
2016-02-04T07:36:45.480Z,4.01
2016-02-04T07:37:45.482Z,3.96
2016-02-04T07:38:45.501Z,3.95
2016-02-04T07:39:45.475Z,3.84
2016-02-04T07:40:45.461Z,3.94
2016-02-04T07:41:45.467Z,3.95
2016-02-04T07:42:45.469Z,3.81
2016-02-04T07:43:45.487Z,3.8
2016-02-04T07:44:45.458Z,3.86
2016-02-04T07:45:45.461Z,3.8
2016-02-04T07:46:45.450Z,3.8
2016-02-04T07:47:45.453Z,3.77
2016-02-04T07:48:45.470Z,3.83
2016-02-04T07:49:45.442Z,3.84
2016-02-04T07:50:45.430Z,3.81
2016-02-04T07:51:45.434Z,3.84
2016-02-04T07:52:45.439Z,3.8
2016-02-04T07:53:50.739Z,3.78
2016-02-04T07:54:45.431Z,3.78
2016-02-04T07:55:45.449Z,3.8
2016-02-04T07:56:45.420Z,3.87
2016-02-04T07:57:45.439Z,3.78
2016-02-04T07:58:45.442Z,3.8
2016-02-04T07:59:45.402Z,3.83
2016-02-04T08:00:45.420Z,3.83
2016-02-04T08:01:45.439Z,3.83
2016-02-04T08:02:45.410Z,3.86
2016-02-04T08:03:45.413Z,3.84
2016-02-04T08:04:45.403Z,3.88
2016-02-04T08:05:48.812Z,3.92
2016-02-04T08:06:45.413Z,3.99
2016-02-04T08:07:48.791Z,4.01
2016-02-04T08:08:45.416Z,4.02
2016-02-04T08:09:45.387Z,4.2
2016-02-04T08:10:45.390Z,4.26
2016-02-04T08:11:50.897Z,4.32
2016-02-04T08:12:48.836Z,4.4
2016-02-04T08:13:45.384Z,4.53
2016-02-04T08:14:45.371Z,4.62
2016-02-04T08:15:48.830Z,4.77
2016-02-04T08:16:48.973Z,4.78
2016-02-04T08:17:45.364Z,5.12
2016-02-04T08:18:45.384Z,5.35
2016-02-04T08:19:45.356Z,5.68
2016-02-04T08:20:48.875Z,6.02
2016-02-04T08:21:45.378Z,6.33
2016-02-04T08:22:45.364Z,6.46
2016-02-04T08:23:51.352Z,6.52
2016-02-04T08:24:45.355Z,6.7
2016-02-04T08:25:45.373Z,6.7
2016-02-04T08:26:45.375Z,6.7
2016-02-04T08:27:45.363Z,6.72
2016-02-04T08:28:51.287Z,6.64
2016-02-04T08:29:45.399Z,6.49
2016-02-04T08:30:45.371Z,6.49
2016-02-04T08:31:45.357Z,6.56
2016-02-04T08:32:45.376Z,6.45
2016-02-04T08:33:45.363Z,6.33
2016-02-04T08:34:45.366Z,6.36
2016-02-04T08:35:45.368Z,6.28
2016-02-04T08:36:45.371Z,6.2
2016-02-04T08:37:45.358Z,6.09
2016-02-04T08:38:45.377Z,6.24
2016-02-04T08:39:45.380Z,6.2
2016-02-04T08:40:45.383Z,6.19
2016-02-04T08:41:45.385Z,6.11
2016-02-04T08:42:45.357Z,6.09
2016-02-04T08:43:45.396Z,5.98
2016-02-04T08:44:45.430Z,6.02
2016-02-04T08:45:45.371Z,5.98
2016-02-04T08:46:45.373Z,6.04
2016-02-04T08:47:45.376Z,5.99
2016-02-04T08:48:45.379Z,5.9
2016-02-04T08:49:45.381Z,5.91
2016-02-04T08:50:45.668Z,5.89
2016-02-04T08:51:45.385Z,5.84
2016-02-04T08:52:45.372Z,5.82
2016-02-04T08:53:45.390Z,5.83
2016-02-04T08:54:45.377Z,5.79
2016-02-04T08:55:45.379Z,5.83
2016-02-04T08:56:45.367Z,5.8
2016-02-04T08:57:45.385Z,5.82
2016-02-04T08:58:45.388Z,5.68
2016-02-04T08:59:45.406Z,5.62
2016-02-04T09:00:45.455Z,5.65
2016-02-04T09:01:45.380Z,5.56
2016-02-04T09:02:45.382Z,5.61
2016-02-04T09:03:45.386Z,5.62
2016-02-04T09:04:45.374Z,5.64
2016-02-04T09:05:45.407Z,5.65
2016-02-04T09:06:46.458Z,5.51
2016-02-04T09:07:45.772Z,5.53
2016-02-04T09:08:45.416Z,5.48
2016-02-04T09:09:45.371Z,5.54
2016-02-04T09:10:45.375Z,5.47
2016-02-04T09:11:45.394Z,5.48
2016-02-04T09:12:45.364Z,5.48
2016-02-04T09:13:45.383Z,5.46
2016-02-04T09:14:45.373Z,5.38
2016-02-04T09:15:45.376Z,5.36
2016-02-04T09:16:45.364Z,5.3
2016-02-04T09:17:45.367Z,5.38
2016-02-04T09:18:45.354Z,5.35
2016-02-04T09:19:45.356Z,5.41
2016-02-04T09:20:45.369Z,5.36
2016-02-04T09:21:45.371Z,5.36
2016-02-04T09:22:45.344Z,5.32
2016-02-04T09:23:45.363Z,5.29
2016-02-04T09:24:45.350Z,5.39
2016-02-04T09:25:45.353Z,5.36
2016-02-04T09:26:45.355Z,5.32
2016-02-04T09:27:45.358Z,5.46
2016-02-04T09:28:45.361Z,5.48
2016-02-04T09:29:46.784Z,5.57
2016-02-04T09:30:46.085Z,5.51
2016-02-04T09:31:45.385Z,5.65
2016-02-04T09:32:45.356Z,5.53
2016-02-04T09:33:46.110Z,5.64
2016-02-04T09:34:45.363Z,5.68
2016-02-04T09:35:45.193Z,5.61
2016-02-04T09:36:45.352Z,5.57
2016-02-04T09:37:45.354Z,5.62
2016-02-04T09:38:45.373Z,5.57
2016-02-04T09:39:45.360Z,5.64
2016-02-04T09:40:45.362Z,5.56
2016-02-04T09:41:45.365Z,5.64
2016-02-04T09:42:45.368Z,5.65
2016-02-04T09:43:45.355Z,5.73
2016-02-04T09:44:45.623Z,5.73
2016-02-04T09:45:45.376Z,5.82
2016-02-04T09:46:45.348Z,5.82
2016-02-04T09:47:45.367Z,5.94
2016-02-04T09:48:45.354Z,5.9
2016-02-04T09:49:45.731Z,5.97
2016-02-04T09:50:45.345Z,5.97
2016-02-04T09:51:45.379Z,6.01
2016-02-04T09:52:45.335Z,6.05
2016-02-04T09:53:45.571Z,5.99
2016-02-04T09:54:45.344Z,6.02
2016-02-04T09:55:45.377Z,6.11
2016-02-04T09:56:45.334Z,6.02
2016-02-04T09:57:45.384Z,6.08
2016-02-04T09:58:45.321Z,6.14
2016-02-04T09:59:45.358Z,6.22
2016-02-04T10:00:45.423Z,6.05
2016-02-04T10:01:45.329Z,6.05
2016-02-04T10:02:45.335Z,6.11
2016-02-04T10:03:45.323Z,6.07
2016-02-04T10:04:45.325Z,6.12
2016-02-04T10:05:45.593Z,6.31
2016-02-04T10:06:45.330Z,6.33
2016-02-04T10:07:45.335Z,6.44
2016-02-04T10:08:45.321Z,6.46
2016-02-04T10:09:45.340Z,6.49
2016-02-04T10:10:45.326Z,6.51
2016-02-04T10:11:45.532Z,6.48
2016-02-04T10:12:45.503Z,6.46
2016-02-04T10:13:46.023Z,6.54
2016-02-04T10:14:45.337Z,6.52
2016-02-04T10:15:45.324Z,6.51
2016-02-04T10:16:45.326Z,6.42
2016-02-04T10:17:45.329Z,6.51
2016-02-04T10:18:45.629Z,6.45
2016-02-04T10:19:45.556Z,6.45
2016-02-04T10:20:45.324Z,6.49
2016-02-04T10:21:45.328Z,6.48
2016-02-04T10:22:45.288Z,6.59
2016-02-04T10:23:45.310Z,6.48
2016-02-04T10:24:45.911Z,6.49
2016-02-04T10:25:45.260Z,6.6
2016-02-04T10:26:45.258Z,6.6
2016-02-04T10:27:45.866Z,6.54
2016-02-04T10:28:45.255Z,6.56
2016-02-04T10:29:45.254Z,6.48
2016-02-04T10:30:45.236Z,6.49
2016-02-04T10:31:45.222Z,6.51
2016-02-04T10:32:45.723Z,6.45
2016-02-04T10:33:45.239Z,6.39
2016-02-04T10:34:45.226Z,6.44
2016-02-04T10:35:45.227Z,6.38
2016-02-04T10:36:45.526Z,6.39
2016-02-04T10:37:45.247Z,6.42
2016-02-04T10:38:45.234Z,6.45
2016-02-04T10:39:45.220Z,6.33
2016-02-04T10:40:45.222Z,6.33
2016-02-04T10:41:45.209Z,6.42
2016-02-04T10:42:45.227Z,6.49
2016-02-04T10:43:45.230Z,6.49
2016-02-04T10:44:45.235Z,6.35
2016-02-04T10:45:45.207Z,6.3
2016-02-04T10:46:45.225Z,6.45
2016-02-04T10:47:45.212Z,6.45
2016-02-04T10:48:45.215Z,6.56
2016-02-04T10:49:45.858Z,6.49
2016-02-04T10:50:45.221Z,6.42
2016-02-04T10:51:45.224Z,6.45
2016-02-04T10:52:45.211Z,6.56
2016-02-04T10:53:45.260Z,6.46
2016-02-04T10:54:45.217Z,6.42
2016-02-04T10:55:45.220Z,6.48
2016-02-04T10:56:45.207Z,6.35
2016-02-04T10:57:45.866Z,6.44
2016-02-04T10:58:45.212Z,6.42
2016-02-04T10:59:45.966Z,6.52
2016-02-04T11:00:45.219Z,6.49
2016-02-04T11:01:45.206Z,6.45
2016-02-04T11:02:45.224Z,6.51
2016-02-04T11:03:45.212Z,6.52
2016-02-04T11:04:46.012Z,6.45
2016-02-04T11:05:45.217Z,6.57
2016-02-04T11:06:45.224Z,6.44
2016-02-04T11:07:45.211Z,6.46
2016-02-04T11:08:45.229Z,6.41
2016-02-04T11:09:45.200Z,6.51
2016-02-04T11:10:46.016Z,6.39
2016-02-04T11:11:46.003Z,6.46
2016-02-04T11:12:45.225Z,6.31
2016-02-04T11:13:45.228Z,6.41
2016-02-04T11:14:46.012Z,6.39
2016-02-04T11:15:45.234Z,6.44
2016-02-04T11:16:46.081Z,6.45
2016-02-04T11:17:45.223Z,6.45
2016-02-04T11:18:45.211Z,6.42
2016-02-04T11:19:45.215Z,6.45
2016-02-04T11:20:45.218Z,6.38
2016-02-04T11:21:45.220Z,6.52
2016-02-04T11:22:45.223Z,6.46
2016-02-04T11:23:45.210Z,6.44
2016-02-04T11:24:45.212Z,6.52
2016-02-04T11:25:45.214Z,6.46
2016-02-04T11:26:45.234Z,6.44
2016-02-04T11:27:45.237Z,6.39
2016-02-04T11:28:45.207Z,6.33
2016-02-04T11:29:45.226Z,6.28
2016-02-04T11:30:45.213Z,6.36
2016-02-04T11:31:45.221Z,6.31
2016-02-04T11:32:45.209Z,6.2
2016-02-04T11:33:45.226Z,6.26
2016-02-04T11:34:45.214Z,6.26
2016-02-04T11:35:45.217Z,6.39
2016-02-04T11:36:45.220Z,6.26
2016-02-04T11:37:45.222Z,6.24
2016-02-04T11:38:45.210Z,6.2
2016-02-04T11:39:45.228Z,6.27
2016-02-04T11:40:45.199Z,6.26
2016-02-04T11:41:45.218Z,6.28
2016-02-04T11:42:45.204Z,6.22
2016-02-04T11:43:45.197Z,6.26
2016-02-04T11:44:45.246Z,6.28
2016-02-04T11:45:45.202Z,6.26
2016-02-04T11:46:45.236Z,6.14
2016-02-04T11:47:45.222Z,6.12
2016-02-04T11:48:45.241Z,6.11
2016-02-04T11:49:45.227Z,6.12
2016-02-04T11:50:45.215Z,6.14
2016-02-04T11:51:45.221Z,6.07
2016-02-04T11:52:45.207Z,6.11
2016-02-04T11:53:45.210Z,6.05
2016-02-04T11:54:45.212Z,5.99
2016-02-04T11:55:45.218Z,5.97
2016-02-04T11:56:45.267Z,5.93
2016-02-04T11:57:45.239Z,5.87
2016-02-04T11:58:45.210Z,5.93
2016-02-04T11:59:45.244Z,5.9
2016-02-04T12:00:45.247Z,5.89
2016-02-04T12:01:45.218Z,5.82
2016-02-04T12:02:45.237Z,5.8
2016-02-04T12:03:45.209Z,5.82
2016-02-04T12:04:45.196Z,5.89
2016-02-04T12:05:45.246Z,5.87
2016-02-04T12:06:45.218Z,5.93
2016-02-04T12:07:45.188Z,5.89
2016-02-04T12:08:45.191Z,5.91
2016-02-04T12:09:45.225Z,5.87
2016-02-04T12:10:45.196Z,5.75
2016-02-04T12:11:45.184Z,5.8
2016-02-04T12:12:45.218Z,5.69
2016-02-04T12:13:45.190Z,5.61
2016-02-04T12:14:45.176Z,5.56
2016-02-04T12:15:45.180Z,5.64
2016-02-04T12:16:45.182Z,5.54
2016-02-04T12:17:45.170Z,5.48
2016-02-04T12:18:45.174Z,5.44
2016-02-04T12:19:45.176Z,5.33
2016-02-04T12:20:45.163Z,5.26
2016-02-04T12:21:45.181Z,5.35
2016-02-04T12:22:45.230Z,5.3
2016-02-04T12:23:45.173Z,5.25
2016-02-04T12:24:45.160Z,5.14
2016-02-04T12:25:45.210Z,5.11
2016-02-04T12:26:45.196Z,5.18
2016-02-04T12:27:45.184Z,5.25
2016-02-04T12:28:45.201Z,5.25
2016-02-04T12:29:45.158Z,5.25
2016-02-04T12:30:45.177Z,5.29
2016-02-04T12:31:45.148Z,5.26
2016-02-04T12:32:45.167Z,5.25
2016-02-04T12:33:45.170Z,5.21
2016-02-04T12:34:45.173Z,5.15
2016-02-04T12:35:45.178Z,5.08
2016-02-04T12:36:45.164Z,5.05
2016-02-04T12:37:45.151Z,5.04
2016-02-04T12:38:45.154Z,4.97
2016-02-04T12:39:45.141Z,5.02
2016-02-04T12:40:45.179Z,5.05
2016-02-04T12:41:44.401Z,5.04
2016-02-04T12:42:45.153Z,5
2016-02-04T12:43:45.149Z,5.08
2016-02-04T12:44:45.136Z,5.1
2016-02-04T12:45:45.123Z,5.08
2016-02-04T12:46:45.126Z,5.11
2016-02-04T12:47:45.145Z,5.08
2016-02-04T12:48:45.147Z,5.1
2016-02-04T12:49:45.166Z,5.04
2016-02-04T12:50:45.122Z,5.04
2016-02-04T12:51:45.140Z,5.1
2016-02-04T12:52:45.128Z,5.05
2016-02-04T12:53:45.131Z,5.08
2016-02-04T12:54:45.117Z,5.12
2016-02-04T12:55:45.144Z,5.14
2016-02-04T12:56:45.115Z,5.1
2016-02-04T12:57:45.133Z,5.05
2016-02-04T12:58:45.136Z,5.08
2016-02-04T12:59:45.154Z,5.1
2016-02-04T13:00:45.110Z,5.1
2016-02-04T13:01:45.112Z,5.04
2016-02-04T13:02:45.162Z,5.12
2016-02-04T13:03:45.118Z,5.15
2016-02-04T13:04:45.120Z,5.07
2016-02-04T13:05:45.107Z,5.08
2016-02-04T13:06:45.141Z,5.05
2016-02-04T13:07:45.098Z,4.97
2016-02-04T13:08:45.117Z,4.97
2016-02-04T13:09:45.103Z,4.92
2016-02-04T13:10:45.106Z,4.97
2016-02-04T13:11:45.109Z,4.94
2016-02-04T13:12:46.893Z,5
2016-02-04T13:13:45.130Z,5.02
2016-02-04T13:14:45.086Z,5.08
2016-02-04T13:15:45.120Z,4.99
2016-02-04T13:16:45.093Z,4.94
2016-02-04T13:17:45.095Z,4.96
2016-02-04T13:18:45.082Z,4.84
2016-02-04T13:19:45.100Z,4.96
2016-02-04T13:20:45.091Z,4.9
2016-02-04T13:21:45.075Z,4.9
2016-02-04T13:22:45.078Z,4.9